• Join FlightAware (Why Join?)
  • Login
  • US Flag 
06:37PM EDT


 

Airport Tracker/Info


-or-


 

Live Flight TrackerFlight Track Log ✈ N30852 ✈ 26-Jun-2013 ✈ KIPJ - KBCB

Flight Track Log - Related Links

Times and Time Zones

All times are in EDT time to prevent confusion due to time zone crossing. See the N30852 flight status page for this flight to view local times or setup timezone preferences in your user account.

Time Position Orientation Groundspeed Altitude Reporting Facility
EDT Latitude Longitude Course Direction KTS MPH feet Rate Location/Type
10:01AM 35.4761 -81.1697 241° Southwest 51 59 1,200  Level Atlanta Center
10:02AM 35.4703 -81.1828 241° Southwest 73 84 1,500 600 Climbing Atlanta Center
10:03AM 35.4519 -81.2036 223° Southwest 76 87 2,200 540 Climbing Atlanta Center
10:04AM 35.4419 -81.2219 236° Southwest 70 81 2,600 420 Climbing Atlanta Center
10:05AM 35.4586 -81.2264 348° North 44 51 3,100 540 Climbing Atlanta Center
10:06AM 35.4772 -81.2233 North 57 66 3,700 540 Climbing Atlanta Center
10:07AM 35.4981 -81.2175 13° North 69 79 4,200 420 Climbing Atlanta Center
10:08AM 35.5147 -81.2169 North 64 74 4,600 360 Climbing Atlanta Center
10:09AM 35.5314 -81.2189 355° North 64 74 5,000 300 Climbing Atlanta Center
10:10AM 35.5525 -81.2206 356° North 72 83 5,300 300 Climbing Atlanta Center
10:11AM 35.5733 -81.2225 356° North 72 83 5,700 300 Climbing Atlanta Center
10:12AM 35.5964 -81.2269 351° North 72 83 6,000 300 Climbing Atlanta Center
10:13AM 35.6128 -81.2186 22° Northeast 67 77 6,300 300 Climbing Atlanta Center
10:14AM 35.6381 -81.2281 343° North 72 83 6,600 300 Climbing Atlanta Center
10:15AM 35.6611 -81.2297 357° North 79 91 7,000 240 Climbing Atlanta Center
10:16AM 35.6903 -81.2339 353° North 90 104 7,100  Climbing Atlanta Center
10:17AM 35.7197 -81.2381 353° North 95 109 7,000 -60 Descending Atlanta Center
10:18AM 35.7492 -81.2497 342° North 108 124 7,000  Level Atlanta Center
10:19AM 35.7767 -81.2642 337° Northwest 108 124 7,000  Level Atlanta Center
10:20AM 35.8039 -81.2761 340° North 113 130 7,000  Level Atlanta Center
10:21AM 35.8353 -81.2725 North 108 124 7,000  Level Atlanta Center
10:22AM 35.8619 -81.2536 30° Northeast 103 119 7,100  Climbing Atlanta Center
10:23AM 35.8928 -81.2397 20° North 109 125 7,000 -60 Descending Atlanta Center
10:24AM 35.9217 -81.2233 25° Northeast 109 125 7,000  Level Atlanta Center
10:25AM 35.9525 -81.2067 24° Northeast 109 125 7,000 -60 Level Atlanta Center
10:26AM 35.9856 -81.1878 25° Northeast 109 125 6,900  Descending Atlanta Center
10:27AM 36.0122 -81.1714 26° Northeast 111 128 7,100  Climbing Atlanta Center
10:28AM 36.0411 -81.1550 25° Northeast 110 127 7,000 -60 Descending Atlanta Center
10:29AM 36.0700 -81.1386 25° Northeast 118 136 7,000  Level Atlanta Center
10:30AM 36.1006 -81.1169 30° Northeast 113 130 7,100  Climbing Atlanta Center
10:31AM 36.1294 -81.1031 21° North 113 130 7,000 -60 Descending Atlanta Center
10:32AM 36.1603 -81.0839 27° Northeast 113 130 7,000  Level Atlanta Center
10:33AM 36.1892 -81.0672 25° Northeast 113 130 7,000  Level Atlanta Center
10:34AM 36.2181 -81.0533 21° North 113 130 7,100  Climbing Atlanta Center
10:35AM 36.2489 -81.0369 23° Northeast 113 130 7,100 -60 Level Atlanta Center
10:36AM 36.2778 -81.0178 28° Northeast 113 130 7,000 -120 Descending Atlanta Center
10:37AM 36.3083 -80.9958 30° Northeast 113 130 6,900  Descending Atlanta Center
10:38AM 36.3350 -80.9742 33° Northeast 113 130 7,100 60 Climbing Atlanta Center
10:39AM 36.3636 -80.9553 28° Northeast 113 130 7,100  Level Atlanta Center
10:40AM 36.3925 -80.9361 28° Northeast 113 130 7,200  Climbing Atlanta Center
10:41AM 36.4208 -80.9117 35° Northeast 113 130 7,100 -60 Descending Atlanta Center
10:42AM 36.4475 -80.8925 30° Northeast 113 130 7,100  Level Atlanta Center
10:43AM 36.4783 -80.8733 27° Northeast 113 130 7,100 -60 Level Atlanta Center
10:44AM 36.5069 -80.8542 28° Northeast 113 130 7,000  Descending Atlanta Center
10:45AM 36.5336 -80.8322 33° Northeast 113 130 7,100  Climbing Atlanta Center
10:46AM 36.5644 -80.8156 23° Northeast 113 130 7,100  Level Atlanta Center
10:47AM 36.5931 -80.7939 31° Northeast 113 130 7,100  Level Atlanta Center
10:48AM 36.6239 -80.7797 20° North 113 130 7,100  Level Atlanta Center
10:49AM 36.6547 -80.7578 30° Northeast 118 136 7,100  Level Atlanta Center
10:50AM 36.6814 -80.7411 27° Northeast 113 130 7,100  Level Atlanta Center
10:51AM 36.7100 -80.7217 29° Northeast 113 130 7,100  Level Atlanta Center
10:52AM 36.7386 -80.7022 29° Northeast 113 130 7,100 -60 Level Atlanta Center
10:53AM 36.7672 -80.6831 28° Northeast 113 130 7,000  Descending Atlanta Center
10:54AM 36.8003 -80.6636 25° Northeast 113 130 7,100  Climbing Atlanta Center
10:55AM 36.8308 -80.6414 30° Northeast 113 130 7,000 -120 Descending Atlanta Center
10:56AM 36.8617 -80.6219 27° Northeast 113 130 6,900 -300 Descending Atlanta Center
10:57AM 36.8883 -80.6053 27° Northeast 113 130 6,500 -360 Descending Atlanta Center
10:58AM 36.9192 -80.5908 21° North 118 136 6,200 -240 Descending Atlanta Center
10:59AM 36.9478 -80.5714 29° Northeast 113 130 6,100 -120 Descending Atlanta Center
11:01AM 36.9935 -80.5257 31° Northeast  Level FlightAware Approximate
11:08AM 37.1826 -80.4109 26° Northeast  Level FlightAware Approximate
11:09AM 37.2000 -80.4000 26° Northeast  Level FlightAware Approximate